sensor_id;sensor_type;location;lat;lon;timestamp;P1;durP1;ratioP1;P2;durP2;ratioP2
48823;SDS011;34640;53.590;10.054;2022-11-15T00:01:27;54.72;;;23.85;;
48823;SDS011;34640;53.590;10.054;2022-11-15T00:04:01;51.33;;;23.48;;
48823;SDS011;34640;53.590;10.054;2022-11-15T00:06:34;50.47;;;25.02;;
48823;SDS011;34640;53.590;10.054;2022-11-15T00:09:10;49.30;;;23.23;;
48823;SDS011;34640;53.590;10.054;2022-11-15T00:11:43;49.83;;;24.25;;
48823;SDS011;34640;53.590;10.054;2022-11-15T00:14:17;49.15;;;23.88;;
48823;SDS011;34640;53.590;10.054;2022-11-15T00:16:51;50.35;;;24.98;;
48823;SDS011;34640;53.590;10.054;2022-11-15T00:19:24;47.25;;;23.80;;
48823;SDS011;34640;53.590;10.054;2022-11-15T00:21:58;51.20;;;25.17;;
48823;SDS011;34640;53.590;10.054;2022-11-15T00:24:33;51.05;;;24.05;;
48823;SDS011;34640;53.590;10.054;2022-11-15T00:27:06;48.35;;;23.30;;
48823;SDS011;34640;53.590;10.054;2022-11-15T00:29:40;44.58;;;23.05;;
48823;SDS011;34640;53.590;10.054;2022-11-15T00:32:15;50.97;;;22.75;;
48823;SDS011;34640;53.590;10.054;2022-11-15T00:34:49;44.92;;;22.42;;
48823;SDS011;34640;53.590;10.054;2022-11-15T00:37:22;47.33;;;22.85;;
48823;SDS011;34640;53.590;10.054;2022-11-15T00:39:57;53.08;;;24.55;;
48823;SDS011;34640;53.590;10.054;2022-11-15T00:42:31;47.92;;;24.40;;
48823;SDS011;34640;53.590;10.054;2022-11-15T00:45:05;47.22;;;22.88;;
48823;SDS011;34640;53.590;10.054;2022-11-15T00:47:39;47.35;;;23.30;;
48823;SDS011;34640;53.590;10.054;2022-11-15T00:50:13;48.20;;;24.10;;
48823;SDS011;34640;53.590;10.054;2022-11-15T00:52:47;43.40;;;22.13;;
48823;SDS011;34640;53.590;10.054;2022-11-15T00:55:22;42.60;;;22.20;;
48823;SDS011;34640;53.590;10.054;2022-11-15T00:57:55;48.05;;;22.48;;
48823;SDS011;34640;53.590;10.054;2022-11-15T01:00:29;45.10;;;23.63;;
48823;SDS011;34640;53.590;10.054;2022-11-15T01:03:03;46.28;;;23.25;;
48823;SDS011;34640;53.590;10.054;2022-11-15T01:05:36;44.83;;;21.50;;
48823;SDS011;34640;53.590;10.054;2022-11-15T01:08:12;45.88;;;22.33;;
48823;SDS011;34640;53.590;10.054;2022-11-15T01:10:47;43.30;;;22.23;;
48823;SDS011;34640;53.590;10.054;2022-11-15T01:13:21;42.08;;;22.70;;
48823;SDS011;34640;53.590;10.054;2022-11-15T01:15:54;41.60;;;22.17;;
48823;SDS011;34640;53.590;10.054;2022-11-15T01:18:28;45.00;;;22.50;;
48823;SDS011;34640;53.590;10.054;2022-11-15T01:21:04;40.80;;;20.52;;
48823;SDS011;34640;53.590;10.054;2022-11-15T01:23:38;44.63;;;22.70;;
48823;SDS011;34640;53.590;10.054;2022-11-15T01:26:14;41.83;;;21.55;;
48823;SDS011;34640;53.590;10.054;2022-11-15T01:28:48;40.40;;;21.35;;
48823;SDS011;34640;53.590;10.054;2022-11-15T01:31:23;42.45;;;21.05;;
48823;SDS011;34640;53.590;10.054;2022-11-15T01:33:56;40.17;;;20.30;;
48823;SDS011;34640;53.590;10.054;2022-11-15T01:36:30;38.13;;;21.25;;
48823;SDS011;34640;53.590;10.054;2022-11-15T01:39:03;44.60;;;21.60;;
48823;SDS011;34640;53.590;10.054;2022-11-15T01:41:39;41.05;;;21.95;;
48823;SDS011;34640;53.590;10.054;2022-11-15T01:47:12;43.75;;;21.67;;
48823;SDS011;34640;53.590;10.054;2022-11-15T01:49:50;37.53;;;20.70;;
48823;SDS011;34640;53.590;10.054;2022-11-15T01:52:28;40.65;;;20.33;;
48823;SDS011;34640;53.590;10.054;2022-11-15T01:55:04;40.65;;;21.02;;
48823;SDS011;34640;53.590;10.054;2022-11-15T01:57:42;40.97;;;21.38;;
48823;SDS011;34640;53.590;10.054;2022-11-15T02:00:19;42.30;;;22.17;;
48823;SDS011;34640;53.590;10.054;2022-11-15T02:02:53;41.10;;;21.25;;
48823;SDS011;34640;53.590;10.054;2022-11-15T02:05:27;38.20;;;20.73;;
48823;SDS011;34640;53.590;10.054;2022-11-15T02:08:03;42.08;;;21.42;;
48823;SDS011;34640;53.590;10.054;2022-11-15T02:10:37;39.30;;;20.77;;
48823;SDS011;34640;53.590;10.054;2022-11-15T02:13:12;39.00;;;19.92;;
48823;SDS011;34640;53.590;10.054;2022-11-15T02:15:48;41.22;;;20.65;;
48823;SDS011;34640;53.590;10.054;2022-11-15T02:18:35;39.72;;;21.13;;
48823;SDS011;34640;53.590;10.054;2022-11-15T02:21:17;40.63;;;19.40;;
48823;SDS011;34640;53.590;10.054;2022-11-15T02:27:23;39.58;;;19.48;;
48823;SDS011;34640;53.590;10.054;2022-11-15T02:30:17;40.95;;;21.50;;
48823;SDS011;34640;53.590;10.054;2022-11-15T02:32:54;41.10;;;21.00;;
48823;SDS011;34640;53.590;10.054;2022-11-15T02:35:34;43.70;;;22.67;;
48823;SDS011;34640;53.590;10.054;2022-11-15T02:38:16;44.05;;;21.83;;
48823;SDS011;34640;53.590;10.054;2022-11-15T02:40:59;39.60;;;19.77;;
48823;SDS011;34640;53.590;10.054;2022-11-15T02:43:37;41.75;;;19.83;;
48823;SDS011;34640;53.590;10.054;2022-11-15T02:46:39;39.47;;;20.75;;
48823;SDS011;34640;53.590;10.054;2022-11-15T02:49:33;37.17;;;18.88;;
48823;SDS011;34640;53.590;10.054;2022-11-15T02:52:07;39.47;;;20.13;;
48823;SDS011;34640;53.590;10.054;2022-11-15T02:54:41;39.10;;;21.23;;
48823;SDS011;34640;53.590;10.054;2022-11-15T02:57:16;39.45;;;20.20;;
48823;SDS011;34640;53.590;10.054;2022-11-15T03:00:01;37.05;;;20.02;;
48823;SDS011;34640;53.590;10.054;2022-11-15T03:02:44;39.08;;;19.55;;
48823;SDS011;34640;53.590;10.054;2022-11-15T03:05:31;36.70;;;18.88;;
48823;SDS011;34640;53.590;10.054;2022-11-15T03:08:11;35.70;;;18.80;;
48823;SDS011;34640;53.590;10.054;2022-11-15T03:10:52;34.60;;;18.90;;
48823;SDS011;34640;53.590;10.054;2022-11-15T03:13:35;35.92;;;18.27;;
48823;SDS011;34640;53.590;10.054;2022-11-15T03:16:18;36.55;;;18.33;;
48823;SDS011;34640;53.590;10.054;2022-11-15T03:18:59;33.88;;;18.63;;
48823;SDS011;34640;53.590;10.054;2022-11-15T03:21:37;32.20;;;17.48;;
48823;SDS011;34640;53.590;10.054;2022-11-15T03:24:13;33.67;;;18.10;;
48823;SDS011;34640;53.590;10.054;2022-11-15T03:26:55;34.97;;;17.90;;
48823;SDS011;34640;53.590;10.054;2022-11-15T03:29:33;42.95;;;18.73;;
48823;SDS011;34640;53.590;10.054;2022-11-15T03:32:11;33.05;;;17.80;;
48823;SDS011;34640;53.590;10.054;2022-11-15T03:34:50;33.80;;;17.92;;
48823;SDS011;34640;53.590;10.054;2022-11-15T03:37:30;35.50;;;17.95;;
48823;SDS011;34640;53.590;10.054;2022-11-15T03:40:08;33.05;;;17.35;;
48823;SDS011;34640;53.590;10.054;2022-11-15T03:42:43;36.28;;;18.70;;
48823;SDS011;34640;53.590;10.054;2022-11-15T03:45:23;35.17;;;18.02;;
48823;SDS011;34640;53.590;10.054;2022-11-15T03:48:02;36.00;;;17.85;;
48823;SDS011;34640;53.590;10.054;2022-11-15T03:50:45;31.08;;;17.40;;
48823;SDS011;34640;53.590;10.054;2022-11-15T03:53:19;32.10;;;17.52;;
48823;SDS011;34640;53.590;10.054;2022-11-15T03:55:53;34.08;;;17.38;;
48823;SDS011;34640;53.590;10.054;2022-11-15T03:58:27;30.83;;;16.98;;
48823;SDS011;34640;53.590;10.054;2022-11-15T04:01:01;36.95;;;17.90;;
48823;SDS011;34640;53.590;10.054;2022-11-15T04:03:34;30.70;;;16.95;;
48823;SDS011;34640;53.590;10.054;2022-11-15T04:06:09;36.22;;;17.35;;
48823;SDS011;34640;53.590;10.054;2022-11-15T04:08:43;28.73;;;15.82;;
48823;SDS011;34640;53.590;10.054;2022-11-15T04:11:17;28.88;;;15.70;;
48823;SDS011;34640;53.590;10.054;2022-11-15T04:13:50;30.70;;;15.93;;
48823;SDS011;34640;53.590;10.054;2022-11-15T04:16:24;29.40;;;15.38;;
48823;SDS011;34640;53.590;10.054;2022-11-15T04:18:57;34.88;;;17.20;;
48823;SDS011;34640;53.590;10.054;2022-11-15T04:21:47;28.77;;;15.10;;
48823;SDS011;34640;53.590;10.054;2022-11-15T04:24:37;29.42;;;15.15;;
48823;SDS011;34640;53.590;10.054;2022-11-15T04:27:11;32.10;;;16.95;;
48823;SDS011;34640;53.590;10.054;2022-11-15T04:29:45;29.20;;;15.93;;
48823;SDS011;34640;53.590;10.054;2022-11-15T04:32:20;32.85;;;16.17;;
48823;SDS011;34640;53.590;10.054;2022-11-15T04:34:53;30.35;;;16.17;;
48823;SDS011;34640;53.590;10.054;2022-11-15T04:37:28;35.13;;;16.60;;
48823;SDS011;34640;53.590;10.054;2022-11-15T04:40:01;31.45;;;16.25;;
48823;SDS011;34640;53.590;10.054;2022-11-15T04:42:35;28.90;;;16.38;;
48823;SDS011;34640;53.590;10.054;2022-11-15T04:45:08;29.88;;;16.27;;
48823;SDS011;34640;53.590;10.054;2022-11-15T04:47:43;30.83;;;16.13;;
48823;SDS011;34640;53.590;10.054;2022-11-15T04:50:18;31.52;;;16.35;;
48823;SDS011;34640;53.590;10.054;2022-11-15T04:52:53;31.35;;;15.25;;
48823;SDS011;34640;53.590;10.054;2022-11-15T04:55:28;33.05;;;17.20;;
48823;SDS011;34640;53.590;10.054;2022-11-15T04:58:02;31.00;;;16.02;;
48823;SDS011;34640;53.590;10.054;2022-11-15T05:00:35;31.98;;;15.68;;
48823;SDS011;34640;53.590;10.054;2022-11-15T05:03:09;32.45;;;16.85;;
48823;SDS011;34640;53.590;10.054;2022-11-15T05:06:01;34.42;;;16.77;;
48823;SDS011;34640;53.590;10.054;2022-11-15T05:08:36;29.80;;;15.75;;
48823;SDS011;34640;53.590;10.054;2022-11-15T05:11:10;30.17;;;16.45;;
48823;SDS011;34640;53.590;10.054;2022-11-15T05:13:44;27.67;;;16.08;;
48823;SDS011;34640;53.590;10.054;2022-11-15T05:16:17;27.30;;;15.15;;
48823;SDS011;34640;53.590;10.054;2022-11-15T05:18:51;29.38;;;15.93;;
48823;SDS011;34640;53.590;10.054;2022-11-15T05:21:25;28.75;;;15.18;;
48823;SDS011;34640;53.590;10.054;2022-11-15T05:24:01;26.88;;;14.80;;
48823;SDS011;34640;53.590;10.054;2022-11-15T05:26:34;28.50;;;15.13;;
48823;SDS011;34640;53.590;10.054;2022-11-15T05:29:08;29.45;;;15.57;;
48823;SDS011;34640;53.590;10.054;2022-11-15T05:31:43;27.63;;;15.57;;
48823;SDS011;34640;53.590;10.054;2022-11-15T05:34:18;29.23;;;15.70;;
48823;SDS011;34640;53.590;10.054;2022-11-15T05:36:53;28.17;;;14.75;;
48823;SDS011;34640;53.590;10.054;2022-11-15T05:39:28;27.52;;;15.55;;
48823;SDS011;34640;53.590;10.054;2022-11-15T05:42:05;29.15;;;14.98;;
48823;SDS011;34640;53.590;10.054;2022-11-15T05:44:41;33.00;;;15.18;;
48823;SDS011;34640;53.590;10.054;2022-11-15T05:47:18;29.52;;;15.20;;
48823;SDS011;34640;53.590;10.054;2022-11-15T05:49:55;26.25;;;15.35;;
48823;SDS011;34640;53.590;10.054;2022-11-15T05:52:31;28.60;;;15.05;;
48823;SDS011;34640;53.590;10.054;2022-11-15T05:55:10;30.23;;;14.63;;
48823;SDS011;34640;53.590;10.054;2022-11-15T05:57:44;29.95;;;16.08;;
48823;SDS011;34640;53.590;10.054;2022-11-15T06:00:18;26.60;;;14.73;;
48823;SDS011;34640;53.590;10.054;2022-11-15T06:02:52;32.72;;;16.23;;
48823;SDS011;34640;53.590;10.054;2022-11-15T06:05:26;28.48;;;15.55;;
48823;SDS011;34640;53.590;10.054;2022-11-15T06:07:59;28.58;;;15.15;;
48823;SDS011;34640;53.590;10.054;2022-11-15T06:10:34;27.45;;;15.45;;
48823;SDS011;34640;53.590;10.054;2022-11-15T06:13:08;30.85;;;15.13;;
48823;SDS011;34640;53.590;10.054;2022-11-15T06:15:42;27.13;;;15.32;;
48823;SDS011;34640;53.590;10.054;2022-11-15T06:18:16;29.77;;;16.52;;
48823;SDS011;34640;53.590;10.054;2022-11-15T06:20:49;34.70;;;16.92;;
48823;SDS011;34640;53.590;10.054;2022-11-15T06:23:23;29.05;;;16.02;;
48823;SDS011;34640;53.590;10.054;2022-11-15T06:25:59;28.98;;;16.13;;
48823;SDS011;34640;53.590;10.054;2022-11-15T06:28:33;30.00;;;14.90;;
48823;SDS011;34640;53.590;10.054;2022-11-15T06:31:07;28.52;;;15.25;;
48823;SDS011;34640;53.590;10.054;2022-11-15T06:33:43;30.20;;;15.52;;
48823;SDS011;34640;53.590;10.054;2022-11-15T06:36:17;35.92;;;15.25;;
48823;SDS011;34640;53.590;10.054;2022-11-15T06:38:51;29.50;;;15.57;;
48823;SDS011;34640;53.590;10.054;2022-11-15T06:41:27;32.72;;;15.27;;
48823;SDS011;34640;53.590;10.054;2022-11-15T06:44:00;30.83;;;16.05;;
48823;SDS011;34640;53.590;10.054;2022-11-15T06:46:34;32.50;;;16.40;;
48823;SDS011;34640;53.590;10.054;2022-11-15T06:49:08;29.70;;;15.15;;
48823;SDS011;34640;53.590;10.054;2022-11-15T06:51:41;27.73;;;14.93;;
48823;SDS011;34640;53.590;10.054;2022-11-15T06:54:15;34.08;;;15.65;;
48823;SDS011;34640;53.590;10.054;2022-11-15T06:56:50;27.45;;;15.25;;
48823;SDS011;34640;53.590;10.054;2022-11-15T06:59:24;29.65;;;15.95;;
48823;SDS011;34640;53.590;10.054;2022-11-15T07:01:57;31.80;;;15.55;;
48823;SDS011;34640;53.590;10.054;2022-11-15T07:04:31;32.03;;;15.85;;
48823;SDS011;34640;53.590;10.054;2022-11-15T07:07:05;32.67;;;16.75;;
48823;SDS011;34640;53.590;10.054;2022-11-15T07:09:39;36.33;;;16.02;;
48823;SDS011;34640;53.590;10.054;2022-11-15T07:12:14;26.05;;;15.07;;
48823;SDS011;34640;53.590;10.054;2022-11-15T07:14:47;28.95;;;15.98;;
48823;SDS011;34640;53.590;10.054;2022-11-15T07:17:21;31.70;;;14.77;;
48823;SDS011;34640;53.590;10.054;2022-11-15T07:19:54;34.40;;;15.95;;
48823;SDS011;34640;53.590;10.054;2022-11-15T07:22:28;35.45;;;16.80;;
48823;SDS011;34640;53.590;10.054;2022-11-15T07:25:02;33.05;;;16.13;;
48823;SDS011;34640;53.590;10.054;2022-11-15T07:27:37;28.73;;;15.93;;
48823;SDS011;34640;53.590;10.054;2022-11-15T07:30:11;32.47;;;16.45;;
48823;SDS011;34640;53.590;10.054;2022-11-15T07:32:47;31.83;;;15.73;;
48823;SDS011;34640;53.590;10.054;2022-11-15T07:35:20;37.20;;;15.80;;
48823;SDS011;34640;53.590;10.054;2022-11-15T07:37:55;30.38;;;16.27;;
48823;SDS011;34640;53.590;10.054;2022-11-15T07:40:31;34.47;;;15.82;;
48823;SDS011;34640;53.590;10.054;2022-11-15T07:43:06;34.92;;;16.20;;
48823;SDS011;34640;53.590;10.054;2022-11-15T07:45:41;33.25;;;15.90;;
48823;SDS011;34640;53.590;10.054;2022-11-15T07:48:16;29.05;;;15.15;;
48823;SDS011;34640;53.590;10.054;2022-11-15T07:50:50;28.05;;;15.60;;
48823;SDS011;34640;53.590;10.054;2022-11-15T07:53:23;29.13;;;15.10;;
48823;SDS011;34640;53.590;10.054;2022-11-15T07:55:57;31.80;;;16.05;;
48823;SDS011;34640;53.590;10.054;2022-11-15T07:58:32;31.13;;;16.38;;
48823;SDS011;34640;53.590;10.054;2022-11-15T08:01:07;28.55;;;15.02;;
48823;SDS011;34640;53.590;10.054;2022-11-15T08:03:42;27.83;;;14.50;;
48823;SDS011;34640;53.590;10.054;2022-11-15T08:06:16;26.85;;;15.63;;
48823;SDS011;34640;53.590;10.054;2022-11-15T08:08:50;26.45;;;14.52;;
48823;SDS011;34640;53.590;10.054;2022-11-15T08:11:23;26.38;;;14.23;;
48823;SDS011;34640;53.590;10.054;2022-11-15T08:13:58;24.42;;;14.20;;
48823;SDS011;34640;53.590;10.054;2022-11-15T08:16:32;23.92;;;13.82;;
48823;SDS011;34640;53.590;10.054;2022-11-15T08:19:06;28.90;;;15.35;;
48823;SDS011;34640;53.590;10.054;2022-11-15T08:21:39;27.00;;;14.88;;
48823;SDS011;34640;53.590;10.054;2022-11-15T08:24:13;28.73;;;14.43;;
48823;SDS011;34640;53.590;10.054;2022-11-15T08:26:47;29.08;;;14.98;;
48823;SDS011;34640;53.590;10.054;2022-11-15T08:29:22;29.85;;;14.90;;
48823;SDS011;34640;53.590;10.054;2022-11-15T08:31:56;27.80;;;15.73;;
48823;SDS011;34640;53.590;10.054;2022-11-15T08:34:30;32.67;;;16.00;;
48823;SDS011;34640;53.590;10.054;2022-11-15T08:37:04;27.92;;;15.70;;
48823;SDS011;34640;53.590;10.054;2022-11-15T08:39:39;29.40;;;14.77;;
48823;SDS011;34640;53.590;10.054;2022-11-15T08:42:12;30.85;;;15.13;;
48823;SDS011;34640;53.590;10.054;2022-11-15T08:44:52;30.25;;;14.27;;
48823;SDS011;34640;53.590;10.054;2022-11-15T08:47:26;25.52;;;13.93;;
48823;SDS011;34640;53.590;10.054;2022-11-15T08:50:00;28.35;;;14.43;;
48823;SDS011;34640;53.590;10.054;2022-11-15T08:52:34;26.80;;;14.70;;
48823;SDS011;34640;53.590;10.054;2022-11-15T08:55:08;27.52;;;15.75;;
48823;SDS011;34640;53.590;10.054;2022-11-15T08:57:42;27.75;;;14.90;;
48823;SDS011;34640;53.590;10.054;2022-11-15T09:00:18;30.50;;;14.70;;
48823;SDS011;34640;53.590;10.054;2022-11-15T09:02:53;31.75;;;15.20;;
48823;SDS011;34640;53.590;10.054;2022-11-15T09:05:26;25.52;;;13.88;;
48823;SDS011;34640;53.590;10.054;2022-11-15T09:08:00;28.50;;;14.57;;
48823;SDS011;34640;53.590;10.054;2022-11-15T09:10:54;27.17;;;14.10;;
48823;SDS011;34640;53.590;10.054;2022-11-15T09:13:28;25.15;;;14.50;;
48823;SDS011;34640;53.590;10.054;2022-11-15T09:16:03;26.42;;;14.48;;
48823;SDS011;34640;53.590;10.054;2022-11-15T09:18:37;25.27;;;14.07;;
48823;SDS011;34640;53.590;10.054;2022-11-15T09:21:11;28.42;;;14.45;;
48823;SDS011;34640;53.590;10.054;2022-11-15T09:23:45;28.30;;;14.75;;
48823;SDS011;34640;53.590;10.054;2022-11-15T09:26:19;23.60;;;13.48;;
48823;SDS011;34640;53.590;10.054;2022-11-15T09:28:53;27.42;;;14.73;;
48823;SDS011;34640;53.590;10.054;2022-11-15T09:31:28;25.73;;;13.80;;
48823;SDS011;34640;53.590;10.054;2022-11-15T09:34:02;26.27;;;14.88;;
48823;SDS011;34640;53.590;10.054;2022-11-15T09:36:36;22.85;;;13.50;;
48823;SDS011;34640;53.590;10.054;2022-11-15T09:39:09;30.95;;;13.77;;
48823;SDS011;34640;53.590;10.054;2022-11-15T09:44:42;23.33;;;13.30;;
48823;SDS011;34640;53.590;10.054;2022-11-15T09:47:35;25.30;;;13.68;;
48823;SDS011;34640;53.590;10.054;2022-11-15T09:50:21;28.02;;;14.25;;
48823;SDS011;34640;53.590;10.054;2022-11-15T09:53:08;23.50;;;13.23;;
48823;SDS011;34640;53.590;10.054;2022-11-15T09:55:47;26.75;;;13.35;;
48823;SDS011;34640;53.590;10.054;2022-11-15T09:58:30;25.77;;;14.05;;
48823;SDS011;34640;53.590;10.054;2022-11-15T10:01:11;22.70;;;12.90;;
48823;SDS011;34640;53.590;10.054;2022-11-15T10:03:52;24.30;;;13.55;;
48823;SDS011;34640;53.590;10.054;2022-11-15T10:06:31;23.52;;;13.32;;
48823;SDS011;34640;53.590;10.054;2022-11-15T10:09:13;24.48;;;12.55;;
48823;SDS011;34640;53.590;10.054;2022-11-15T10:11:55;23.08;;;13.27;;
48823;SDS011;34640;53.590;10.054;2022-11-15T10:14:30;20.02;;;12.60;;
48823;SDS011;34640;53.590;10.054;2022-11-15T10:20:16;23.85;;;12.43;;
48823;SDS011;34640;53.590;10.054;2022-11-15T10:22:53;25.63;;;13.27;;
48823;SDS011;34640;53.590;10.054;2022-11-15T10:25:32;26.13;;;13.60;;
48823;SDS011;34640;53.590;10.054;2022-11-15T10:28:09;25.58;;;12.65;;
48823;SDS011;34640;53.590;10.054;2022-11-15T10:30:48;27.52;;;13.35;;
48823;SDS011;34640;53.590;10.054;2022-11-15T10:33:25;21.65;;;11.75;;
48823;SDS011;34640;53.590;10.054;2022-11-15T10:36:18;22.98;;;13.00;;
48823;SDS011;34640;53.590;10.054;2022-11-15T10:38:55;19.83;;;11.95;;
48823;SDS011;34640;53.590;10.054;2022-11-15T10:41:40;22.73;;;12.80;;
48823;SDS011;34640;53.590;10.054;2022-11-15T10:44:19;22.27;;;12.95;;
48823;SDS011;34640;53.590;10.054;2022-11-15T10:47:05;21.45;;;11.65;;
48823;SDS011;34640;53.590;10.054;2022-11-15T10:49:56;21.80;;;11.23;;
48823;SDS011;34640;53.590;10.054;2022-11-15T10:52:36;19.95;;;10.85;;
48823;SDS011;34640;53.590;10.054;2022-11-15T10:55:22;17.02;;;9.73;;
48823;SDS011;34640;53.590;10.054;2022-11-15T10:58:02;20.20;;;10.32;;
48823;SDS011;34640;53.590;10.054;2022-11-15T11:00:37;19.88;;;10.30;;
48823;SDS011;34640;53.590;10.054;2022-11-15T11:03:22;22.35;;;10.45;;
48823;SDS011;34640;53.590;10.054;2022-11-15T11:06:03;24.02;;;11.20;;
48823;SDS011;34640;53.590;10.054;2022-11-15T11:08:41;21.88;;;11.35;;
48823;SDS011;34640;53.590;10.054;2022-11-15T11:11:44;16.58;;;10.20;;
48823;SDS011;34640;53.590;10.054;2022-11-15T11:14:20;21.60;;;10.23;;
48823;SDS011;34640;53.590;10.054;2022-11-15T11:17:01;18.90;;;10.77;;
48823;SDS011;34640;53.590;10.054;2022-11-15T11:19:43;18.23;;;9.30;;
48823;SDS011;34640;53.590;10.054;2022-11-15T11:22:25;20.48;;;10.43;;
48823;SDS011;34640;53.590;10.054;2022-11-15T11:25:10;16.48;;;9.68;;
48823;SDS011;34640;53.590;10.054;2022-11-15T11:27:55;18.50;;;9.52;;
48823;SDS011;34640;53.590;10.054;2022-11-15T11:30:40;19.77;;;9.52;;
48823;SDS011;34640;53.590;10.054;2022-11-15T11:33:21;17.15;;;9.13;;
48823;SDS011;34640;53.590;10.054;2022-11-15T11:36:04;17.48;;;9.20;;
48823;SDS011;34640;53.590;10.054;2022-11-15T11:38:51;17.42;;;9.20;;
48823;SDS011;34640;53.590;10.054;2022-11-15T11:41:38;17.45;;;9.25;;
48823;SDS011;34640;53.590;10.054;2022-11-15T11:44:25;16.00;;;9.32;;
48823;SDS011;34640;53.590;10.054;2022-11-15T11:47:07;21.77;;;10.88;;
48823;SDS011;34640;53.590;10.054;2022-11-15T11:49:45;18.45;;;10.07;;
48823;SDS011;34640;53.590;10.054;2022-11-15T11:55:02;17.33;;;9.27;;
48823;SDS011;34640;53.590;10.054;2022-11-15T11:57:48;19.33;;;10.32;;
48823;SDS011;34640;53.590;10.054;2022-11-15T12:00:26;17.95;;;9.77;;
48823;SDS011;34640;53.590;10.054;2022-11-15T12:03:03;16.88;;;9.60;;
48823;SDS011;34640;53.590;10.054;2022-11-15T12:05:43;19.20;;;10.10;;
48823;SDS011;34640;53.590;10.054;2022-11-15T12:08:23;16.95;;;9.57;;
48823;SDS011;34640;53.590;10.054;2022-11-15T12:11:07;18.08;;;9.98;;
48823;SDS011;34640;53.590;10.054;2022-11-15T12:13:48;21.50;;;9.30;;
48823;SDS011;34640;53.590;10.054;2022-11-15T12:16:28;19.05;;;9.77;;
48823;SDS011;34640;53.590;10.054;2022-11-15T12:19:04;24.30;;;10.50;;
48823;SDS011;34640;53.590;10.054;2022-11-15T12:21:39;16.38;;;8.95;;
48823;SDS011;34640;53.590;10.054;2022-11-15T12:24:20;16.70;;;9.45;;
48823;SDS011;34640;53.590;10.054;2022-11-15T12:27:00;16.50;;;9.88;;
48823;SDS011;34640;53.590;10.054;2022-11-15T12:29:40;17.45;;;9.75;;
48823;SDS011;34640;53.590;10.054;2022-11-15T12:32:18;19.58;;;9.07;;
48823;SDS011;34640;53.590;10.054;2022-11-15T12:35:00;16.40;;;9.02;;
48823;SDS011;34640;53.590;10.054;2022-11-15T12:40:34;15.15;;;8.60;;
48823;SDS011;34640;53.590;10.054;2022-11-15T12:46:18;18.98;;;9.73;;
48823;SDS011;34640;53.590;10.054;2022-11-15T12:48:56;15.82;;;8.60;;
48823;SDS011;34640;53.590;10.054;2022-11-15T12:57:40;19.52;;;9.75;;
48823;SDS011;34640;53.590;10.054;2022-11-15T13:03:23;21.80;;;8.55;;
48823;SDS011;34640;53.590;10.054;2022-11-15T13:06:00;17.45;;;8.98;;
48823;SDS011;34640;53.590;10.054;2022-11-15T13:08:39;15.63;;;9.40;;
48823;SDS011;34640;53.590;10.054;2022-11-15T13:17:32;26.10;;;10.80;;
48823;SDS011;34640;53.590;10.054;2022-11-15T13:20:19;18.25;;;8.55;;
48823;SDS011;34640;53.590;10.054;2022-11-15T13:23:00;19.92;;;8.90;;
48823;SDS011;34640;53.590;10.054;2022-11-15T13:28:36;16.35;;;8.60;;
48823;SDS011;34640;53.590;10.054;2022-11-15T13:31:20;18.13;;;8.93;;
48823;SDS011;34640;53.590;10.054;2022-11-15T13:33:59;13.43;;;8.38;;
48823;SDS011;34640;53.590;10.054;2022-11-15T13:36:57;14.73;;;8.82;;
48823;SDS011;34640;53.590;10.054;2022-11-15T13:39:31;14.80;;;9.10;;
48823;SDS011;34640;53.590;10.054;2022-11-15T13:42:13;14.82;;;7.78;;
48823;SDS011;34640;53.590;10.054;2022-11-15T13:44:55;12.50;;;8.38;;
48823;SDS011;34640;53.590;10.054;2022-11-15T13:47:30;14.88;;;8.75;;
48823;SDS011;34640;53.590;10.054;2022-11-15T13:50:04;15.93;;;8.65;;
48823;SDS011;34640;53.590;10.054;2022-11-15T13:52:45;14.13;;;7.95;;
48823;SDS011;34640;53.590;10.054;2022-11-15T13:55:21;13.73;;;8.05;;
48823;SDS011;34640;53.590;10.054;2022-11-15T13:57:57;18.50;;;9.45;;
48823;SDS011;34640;53.590;10.054;2022-11-15T14:00:34;14.40;;;8.35;;
48823;SDS011;34640;53.590;10.054;2022-11-15T14:03:14;17.25;;;8.35;;
48823;SDS011;34640;53.590;10.054;2022-11-15T14:06:01;17.23;;;8.35;;
48823;SDS011;34640;53.590;10.054;2022-11-15T14:08:40;17.15;;;8.57;;
48823;SDS011;34640;53.590;10.054;2022-11-15T14:11:16;17.02;;;8.07;;
48823;SDS011;34640;53.590;10.054;2022-11-15T14:13:59;14.68;;;8.15;;
48823;SDS011;34640;53.590;10.054;2022-11-15T14:16:39;13.77;;;8.45;;
48823;SDS011;34640;53.590;10.054;2022-11-15T14:22:09;18.13;;;8.65;;
48823;SDS011;34640;53.590;10.054;2022-11-15T14:30:46;18.05;;;9.25;;
48823;SDS011;34640;53.590;10.054;2022-11-15T14:33:24;14.07;;;8.23;;
48823;SDS011;34640;53.590;10.054;2022-11-15T14:36:03;14.60;;;8.90;;
48823;SDS011;34640;53.590;10.054;2022-11-15T14:38:38;13.40;;;8.05;;
48823;SDS011;34640;53.590;10.054;2022-11-15T14:41:21;16.10;;;8.88;;
48823;SDS011;34640;53.590;10.054;2022-11-15T14:43:56;15.48;;;7.97;;
48823;SDS011;34640;53.590;10.054;2022-11-15T14:46:29;17.05;;;8.63;;
48823;SDS011;34640;53.590;10.054;2022-11-15T14:49:03;15.55;;;7.63;;
48823;SDS011;34640;53.590;10.054;2022-11-15T14:51:37;16.83;;;8.48;;
48823;SDS011;34640;53.590;10.054;2022-11-15T14:54:11;14.75;;;7.75;;
48823;SDS011;34640;53.590;10.054;2022-11-15T14:56:46;15.93;;;7.55;;
48823;SDS011;34640;53.590;10.054;2022-11-15T14:59:19;14.35;;;7.72;;
48823;SDS011;34640;53.590;10.054;2022-11-15T15:01:53;17.00;;;8.63;;
48823;SDS011;34640;53.590;10.054;2022-11-15T15:04:27;13.30;;;7.97;;
48823;SDS011;34640;53.590;10.054;2022-11-15T15:07:02;17.23;;;7.95;;
48823;SDS011;34640;53.590;10.054;2022-11-15T15:09:35;17.55;;;7.63;;
48823;SDS011;34640;53.590;10.054;2022-11-15T15:12:18;17.08;;;9.10;;
48823;SDS011;34640;53.590;10.054;2022-11-15T15:14:53;18.17;;;8.63;;
48823;SDS011;34640;53.590;10.054;2022-11-15T15:17:26;15.15;;;7.68;;
48823;SDS011;34640;53.590;10.054;2022-11-15T15:20:00;14.38;;;7.70;;
48823;SDS011;34640;53.590;10.054;2022-11-15T15:22:34;15.23;;;7.78;;
48823;SDS011;34640;53.590;10.054;2022-11-15T15:25:14;17.30;;;8.32;;
48823;SDS011;34640;53.590;10.054;2022-11-15T15:27:55;12.48;;;8.15;;
48823;SDS011;34640;53.590;10.054;2022-11-15T15:30:29;12.73;;;7.70;;
48823;SDS011;34640;53.590;10.054;2022-11-15T15:33:04;15.68;;;8.45;;
48823;SDS011;34640;53.590;10.054;2022-11-15T15:35:38;15.45;;;8.23;;
48823;SDS011;34640;53.590;10.054;2022-11-15T15:38:12;14.80;;;7.90;;
48823;SDS011;34640;53.590;10.054;2022-11-15T15:40:47;14.98;;;8.00;;
48823;SDS011;34640;53.590;10.054;2022-11-15T15:43:24;12.15;;;7.47;;
48823;SDS011;34640;53.590;10.054;2022-11-15T15:45:58;15.82;;;8.43;;
48823;SDS011;34640;53.590;10.054;2022-11-15T15:48:32;15.57;;;7.60;;
48823;SDS011;34640;53.590;10.054;2022-11-15T15:51:09;17.17;;;8.85;;
48823;SDS011;34640;53.590;10.054;2022-11-15T15:53:51;18.08;;;8.75;;
48823;SDS011;34640;53.590;10.054;2022-11-15T15:56:29;16.57;;;8.23;;